Observation data for Tatum on 05/14/2018      Previous  Date  Next       Current Mesonet Observations  Soil Data  Daily Summary Page  Observations in Plain Language
KTAT 140500Z 25009KT 18/M04 A2997 RMK A01 T01801044  RH  021%=      5-min Rain = 0
KTAT 140505Z 25010KT 19/M04 A2997 RMK A01 T01851043  RH  021%=      5-min Rain = 0
KTAT 140510Z 25010KT 19/M04 A2997 RMK A01 T01911044  RH  020%=      5-min Rain = 0
KTAT 140515Z 25010KT 19/M04 A2997 RMK A01 T01901044  RH  020%=      5-min Rain = 0
KTAT 140520Z 25010KT 19/M04 A2997 RMK A01 T01871044  RH  020%=      5-min Rain = 0
KTAT 140525Z 25010KT 19/M05 A2997 RMK A01 T01871045  RH  021%=      5-min Rain = 0
KTAT 140530Z 25010KT 19/M05 A2997 RMK A01 T01851045  RH  021%=      5-min Rain = 0
KTAT 140535Z 24010KT 18/M04 A2997 RMK A01 T01831044  RH  021%=      5-min Rain = 0
KTAT 140540Z 24010KT 18/M04 A2997 RMK A01 T01811044  RH  021%=      5-min Rain = 0
KTAT 140545Z 25009KT 18/M04 A2997 RMK A01 T01781044  RH  022%=      5-min Rain = 0
KTAT 140550Z 25009KT 18/M04 A2997 RMK A01 T01761043  RH  022%=      5-min Rain = 0
KTAT 140555Z 25009KT 17/M04 A2997 RMK A01 T01691043  RH  023%=      5-min Rain = 0
KTAT 140600Z 26005KT 16/M04 A2997 RMK A01 T01641043  RH  024%=      5-min Rain = 0
KTAT 140605Z 14006KT 15/M04 A2998 RMK A01 T01531042  RH  026%=      5-min Rain = 0
KTAT 140610Z 16010G16KT 16/M04 A2998 RMK A01 T01641039  RH  025%=      5-min Rain = 0
KTAT 140615Z 17013G18KT 20/M05 A2999 RMK A01 T02021046  RH  018%=      5-min Rain = 0
KTAT 140620Z 17011KT 22/M05 A2999 RMK A01 T02211053  RH  016%=      5-min Rain = 0
KTAT 140625Z 16012KT 22/M05 A2999 RMK A01 T02181049  RH  016%=      5-min Rain = 0
KTAT 140630Z 17010KT 22/M02 A2999 RMK A01 T02161024  RH  020%=      5-min Rain = 0
KTAT 140635Z 18010KT 21/02 A2999 RMK A01 T02130023  RH  029%=      5-min Rain = 0
KTAT 140640Z 18011KT 22/05 A2999 RMK A01 T02150046  RH  034%=      5-min Rain = 0
KTAT 140645Z 17010KT 22/06 A2999 RMK A01 T02150055  RH  036%=      5-min Rain = 0
KTAT 140650Z 18011KT 21/07 A2999 RMK A01 T02130066  RH  039%=      5-min Rain = 0
KTAT 140655Z 18010KT 21/07 A2999 RMK A01 T02110066  RH  040%=      5-min Rain = 0
KTAT 140700Z 17010KT 21/07 A2999 RMK A01 T02080067  RH  041%=      5-min Rain = 0
KTAT 140705Z 17010KT 20/07 A2999 RMK A01 T02030069  RH  043%=      5-min Rain = 0
KTAT 140710Z 17009KT 20/07 A2999 RMK A01 T02000071  RH  045%=      5-min Rain = 0
KTAT 140715Z 17009KT 20/07 A2999 RMK A01 T01970074  RH  046%=      5-min Rain = 0
KTAT 140720Z 18008KT 20/08 A2999 RMK A01 T01950076  RH  048%=      5-min Rain = 0
KTAT 140725Z 19007KT 19/08 A2999 RMK A01 T01890075  RH  049%=      5-min Rain = 0
KTAT 140730Z 19007KT 18/07 A2998 RMK A01 T01830073  RH  050%=      5-min Rain = 0
KTAT 140735Z 19007KT 18/07 A2998 RMK A01 T01750071  RH  052%=      5-min Rain = 0
KTAT 140740Z 19007KT 17/07 A2998 RMK A01 T01700072  RH  054%=      5-min Rain = 0
KTAT 140745Z 21007KT 17/07 A2998 RMK A01 T01650069  RH  054%=      5-min Rain = 0
KTAT 140750Z 20008KT 16/07 A2998 RMK A01 T01600068  RH  056%=      5-min Rain = 0
KTAT 140755Z 20008KT 16/07 A2998 RMK A01 T01600072  RH  057%=      5-min Rain = 0
KTAT 140800Z 20008KT 16/07 A2998 RMK A01 T01610074  RH  058%=      5-min Rain = 0
KTAT 140805Z 20008KT 16/07 A2998 RMK A01 T01600074  RH  058%=      5-min Rain = 0
KTAT 140810Z 20009KT 16/08 A2998 RMK A01 T01580075  RH  059%=      5-min Rain = 0
KTAT 140815Z 21008KT 16/08 A2998 RMK A01 T01570077  RH  060%=      5-min Rain = 0
KTAT 140820Z 22007KT 16/08 A2998 RMK A01 T01550076  RH  061%=      5-min Rain = 0
KTAT 140825Z 23007KT 15/07 A2998 RMK A01 T01490071  RH  061%=      5-min Rain = 0
KTAT 140830Z 23009KT 14/07 A2998 RMK A01 T01430068  RH  062%=      5-min Rain = 0
KTAT 140835Z 24008KT 14/07 A2998 RMK A01 T01410066  RH  062%=      5-min Rain = 0
KTAT 140840Z 24009KT 14/07 A2998 RMK A01 T01410066  RH  062%=      5-min Rain = 0
KTAT 140845Z 25008KT 14/07 A2998 RMK A01 T01430067  RH  062%=      5-min Rain = 0
KTAT 140850Z 25007KT 14/07 A2998 RMK A01 T01430069  RH  063%=      5-min Rain = 0
KTAT 140855Z 25007KT 14/07 A2998 RMK A01 T01430070  RH  063%=      5-min Rain = 0
KTAT 140900Z 24008KT 15/07 A2998 RMK A01 T01450071  RH  063%=      5-min Rain = 0
KTAT 140905Z 24008KT 15/07 A2998 RMK A01 T01450071  RH  063%=      5-min Rain = 0
KTAT 140910Z 24008KT 15/07 A2998 RMK A01 T01460074  RH  064%=      5-min Rain = 0
KTAT 140915Z 23007KT 15/08 A2999 RMK A01 T01490076  RH  063%=      5-min Rain = 0
KTAT 140920Z 22006KT 15/08 A2999 RMK A01 T01480076  RH  064%=      5-min Rain = 0
KTAT 140925Z 23007KT 15/08 A2999 RMK A01 T01470077  RH  064%=      5-min Rain = 0
KTAT 140930Z 23007KT 15/08 A2999 RMK A01 T01470078  RH  065%=      5-min Rain = 0
KTAT 140935Z 23006KT 15/08 A2999 RMK A01 T01460077  RH  065%=      5-min Rain = 0
KTAT 140940Z 23006KT 14/08 A2999 RMK A01 T01440075  RH  065%=      5-min Rain = 0
KTAT 140945Z 22005KT 14/07 A2999 RMK A01 T01420074  RH  065%=      5-min Rain = 0
KTAT 140950Z 22004KT 14/07 A2999 RMK A01 T01410074  RH  066%=      5-min Rain = 0
KTAT 140955Z 23005KT 14/08 A2999 RMK A01 T01410075  RH  066%=      5-min Rain = 0
KTAT 141000Z 23005KT 14/08 A2999 RMK A01 T01410077  RH  067%=      5-min Rain = 0
KTAT 141005Z 24006KT 14/08 A2999 RMK A01 T01420079  RH  068%=      5-min Rain = 0
KTAT 141010Z 24007KT 14/08 A2999 RMK A01 T01390077  RH  068%=      5-min Rain = 0
KTAT 141015Z 23007KT 14/08 A2999 RMK A01 T01390078  RH  068%=      5-min Rain = 0
KTAT 141020Z 24006KT 14/08 A2999 RMK A01 T01380077  RH  068%=      5-min Rain = 0
KTAT 141025Z 25006KT 13/07 A2999 RMK A01 T01340074  RH  068%=      5-min Rain = 0
KTAT 141030Z 25007KT 13/07 A2999 RMK A01 T01320074  RH  070%=      5-min Rain = 0
KTAT 141035Z 25007KT 13/08 A2999 RMK A01 T01310075  RH  071%=      5-min Rain = 0
KTAT 141040Z 25007KT 13/08 A2999 RMK A01 T01300077  RH  072%=      5-min Rain = 0
KTAT 141045Z 25008KT 13/08 A2999 RMK A01 T01310080  RH  073%=      5-min Rain = 0
KTAT 141050Z 25008KT 14/09 A2999 RMK A01 T01350085  RH  074%=      5-min Rain = 0
KTAT 141055Z 25007KT 14/09 A2999 RMK A01 T01380089  RH  074%=      5-min Rain = 0
KTAT 141100Z 24006KT 14/09 A2999 RMK A01 T01410090  RH  074%=      5-min Rain = 0
KTAT 141105Z 24006KT 14/09 A2999 RMK A01 T01390087  RH  073%=      5-min Rain = 0
KTAT 141110Z 23005KT 14/08 A30 RMK A01 T01350084  RH  073%=      5-min Rain = 0
KTAT 141115Z 24005KT 13/08 A30 RMK A01 T01320082  RH  074%=      5-min Rain = 0
KTAT 141120Z 26005KT 13/08 A30 RMK A01 T01290081  RH  075%=      5-min Rain = 0
KTAT 141125Z 27004KT 13/08 A30 RMK A01 T01270083  RH  077%=      5-min Rain = 0
KTAT 141130Z 25003KT 13/08 A30 RMK A01 T01270083  RH  077%=      5-min Rain = 0
KTAT 141135Z 25004KT 13/09 A30 RMK A01 T01280086  RH  077%=      5-min Rain = 0
KTAT 141140Z 25006KT 13/09 A30 RMK A01 T01300087  RH  078%=      5-min Rain = 0
KTAT 141145Z 26006KT 13/09 A30 RMK A01 T01300085  RH  077%=      5-min Rain = 0
KTAT 141150Z 27007KT 13/09 A30 RMK A01 T01280086  RH  078%=      5-min Rain = 0
KTAT 141155Z 26006KT 13/09 A30 RMK A01 T01290087  RH  078%=      5-min Rain = 0
KTAT 141200Z 26005KT 13/09 A30 RMK A01 T01280086  RH  078%=      5-min Rain = 0
KTAT 141205Z 25005KT 13/09 A30 RMK A01 T01290087  RH  078%=      5-min Rain = 0
KTAT 141210Z 26004KT 13/09 A30 RMK A01 T01310088  RH  078%=      5-min Rain = 0
KTAT 141215Z 27004KT 13/09 A30 RMK A01 T01330085  RH  075%=      5-min Rain = 0
KTAT 141220Z 27005KT 14/09 A30 RMK A01 T01360091  RH  076%=      5-min Rain = 0
KTAT 141225Z 27005KT 15/10 A30 RMK A01 T01460099  RH  076%=      5-min Rain = 0
KTAT 141230Z 26004KT 15/10 A30 RMK A01 T01540104  RH  074%=      5-min Rain = 0
KTAT 141235Z 23003KT 16/11 A3001 RMK A01 T01620109  RH  073%=      5-min Rain = 0
KTAT 141240Z 23003KT 17/11 A3001 RMK A01 T01680110  RH  071%=      5-min Rain = 0
KTAT 141245Z 23003KT 17/11 A3001 RMK A01 T01730112  RH  070%=      5-min Rain = 0
KTAT 141250Z 22004KT 18/12 A3001 RMK A01 T01800116  RH  068%=      5-min Rain = 0
KTAT 141255Z 20006KT 19/12 A3002 RMK A01 T01860119  RH  068%=      5-min Rain = 0
KTAT 141300Z 20006KT 19/12 A3002 RMK A01 T01910124  RH  067%=      5-min Rain = 0
KTAT 141305Z 21006KT 20/13 A3002 RMK A01 T01950126  RH  067%=      5-min Rain = 0
KTAT 141310Z 20007KT 20/13 A3002 RMK A01 T01990129  RH  067%=      5-min Rain = 0
KTAT 141315Z 19008KT 20/13 A3003 RMK A01 T02030133  RH  067%=      5-min Rain = 0
KTAT 141320Z 19008KT 21/14 A3003 RMK A01 T02060137  RH  067%=      5-min Rain = 0
KTAT 141325Z 19009KT 21/14 A3003 RMK A01 T02060141  RH  069%=      5-min Rain = 0
KTAT 141330Z 18009KT 21/14 A3003 RMK A01 T02090142  RH  069%=      5-min Rain = 0
KTAT 141335Z 18011KT 21/14 A3003 RMK A01 T02110143  RH  068%=      5-min Rain = 0
KTAT 141340Z 18010KT 22/15 A3003 RMK A01 T02160145  RH  067%=      5-min Rain = 0
KTAT 141345Z 18009KT 22/15 A3003 RMK A01 T02220145  RH  064%=      5-min Rain = 0
KTAT 141350Z 18009KT 23/15 A3003 RMK A01 T02270145  RH  063%=      5-min Rain = 0
KTAT 141355Z 18010KT 23/15 A3003 RMK A01 T02270146  RH  063%=      5-min Rain = 0
KTAT 141400Z 18010KT 23/15 A3004 RMK A01 T02270145  RH  063%=      5-min Rain = 0
KTAT 141405Z 18009KT 23/15 A3004 RMK A01 T02250145  RH  063%=      5-min Rain = 0
KTAT 141410Z 19009KT 23/15 A3004 RMK A01 T02260146  RH  063%=      5-min Rain = 0
KTAT 141415Z 19008KT 23/15 A3003 RMK A01 T02300146  RH  062%=      5-min Rain = 0
KTAT 141420Z 19007KT 24/15 A3003 RMK A01 T02350146  RH  060%=      5-min Rain = 0
KTAT 141425Z 19007KT 24/14 A3004 RMK A01 T02380144  RH  058%=      5-min Rain = 0
KTAT 141430Z 20007KT 24/14 A3004 RMK A01 T02420141  RH  056%=      5-min Rain = 0
KTAT 141435Z 17007KT 24/14 A3004 RMK A01 T02400143  RH  057%=      5-min Rain = 0
KTAT 141440Z 18008KT 25/14 A3004 RMK A01 T02480144  RH  055%=      5-min Rain = 0
KTAT 141445Z 19006KT 25/14 A3004 RMK A01 T02490141  RH  053%=      5-min Rain = 0
KTAT 141450Z 18007KT 25/14 A3004 RMK A01 T02530139  RH  051%=      5-min Rain = 0
KTAT 141455Z 19006KT 26/13 A3003 RMK A01 T02580132  RH  048%=      5-min Rain = 0
KTAT 141500Z 18006KT 26/13 A3003 RMK A01 T02580131  RH  047%=      5-min Rain = 0
KTAT 141505Z 17006KT 26/13 A3004 RMK A01 T02600131  RH  046%=      5-min Rain = 0
KTAT 141510Z 16008KT 26/14 A3004 RMK A01 T02630138  RH  048%=      5-min Rain = 0
KTAT 141515Z 17008KT 26/14 A3004 RMK A01 T02630136  RH  047%=      5-min Rain = 0
KTAT 141520Z 16009KT 26/14 A3004 RMK A01 T02630135  RH  047%=      5-min Rain = 0
KTAT 141525Z 17007KT 27/14 A3004 RMK A01 T02660136  RH  047%=      5-min Rain = 0
KTAT 141530Z 16007KT 27/13 A3004 RMK A01 T02690132  RH  045%=      5-min Rain = 0
KTAT 141535Z 14006KT 27/13 A3004 RMK A01 T02660129  RH  044%=      5-min Rain = 0
KTAT 141540Z 16005G10KT 26/13 A3004 RMK A01 T02630128  RH  045%=      5-min Rain = 0
KTAT 141545Z 14005KT 26/12 A3004 RMK A01 T02630123  RH  043%=      5-min Rain = 0
KTAT 141550Z 15005KT 27/12 A3004 RMK A01 T02660122  RH  042%=      5-min Rain = 0
KTAT 141555Z 11004KT 28/12 A3003 RMK A01 T02760119  RH  039%=      5-min Rain = 0
KTAT 141600Z 16006KT 28/11 A3003 RMK A01 T02790109  RH  036%=      5-min Rain = 0
KTAT 141605Z 13005KT 28/11 A3003 RMK A01 T02770106  RH  036%=      5-min Rain = 0
KTAT 141610Z 14004KT 28/11 A3003 RMK A01 T02760106  RH  036%=      5-min Rain = 0
KTAT 141615Z 12007KT 27/10 A3003 RMK A01 T02730104  RH  036%=      5-min Rain = 0
KTAT 141620Z 11007KT 28/11 A3003 RMK A01 T02780105  RH  035%=      5-min Rain = 0
KTAT 141625Z 13006KT 28/10 A3003 RMK A01 T02820099  RH  033%=      5-min Rain = 0
KTAT 141630Z 13006KT 29/10 A3003 RMK A01 T02870095  RH  031%=      5-min Rain = 0
KTAT 141635Z 13007KT 29/10 A3003 RMK A01 T02900098  RH  031%=      5-min Rain = 0
KTAT 141640Z 14007KT 29/10 A3003 RMK A01 T02850099  RH  032%=      5-min Rain = 0
KTAT 141645Z 15007KT 30/09 A3003 RMK A01 T02950094  RH  030%=      5-min Rain = 0
KTAT 141650Z 16006G14KT 29/09 A3003 RMK A01 T02930093  RH  029%=      5-min Rain = 0
KTAT 141655Z 16007G12KT 30/09 A3003 RMK A01 T02970092  RH  029%=      5-min Rain = 0
KTAT 141700Z 14007G12KT 30/09 A3003 RMK A01 T02980087  RH  028%=      5-min Rain = 0
KTAT 141705Z 15007KT 30/08 A3003 RMK A01 T03040084  RH  026%=      5-min Rain = 0
KTAT 141710Z 17007G12KT 31/08 A3003 RMK A01 T03120077  RH  024%=      5-min Rain = 0
KTAT 141715Z 13005G11KT 30/07 A3003 RMK A01 T02990065  RH  024%=      5-min Rain = 0
KTAT 141720Z 17005G14KT 30/07 A3003 RMK A01 T02980067  RH  024%=      5-min Rain = 0
KTAT 141725Z 18003KT 31/06 A3003 RMK A01 T03070059  RH  022%=      5-min Rain = 0
KTAT 141730Z 23006KT 31/05 A3002 RMK A01 T03140053  RH  020%=      5-min Rain = 0
KTAT 141735Z 22005KT 32/05 A3002 RMK A01 T03150047  RH  019%=      5-min Rain = 0
KTAT 141740Z 25002KT 31/05 A3002 RMK A01 T03090050  RH  020%=      5-min Rain = 0
KTAT 141745Z 23006KT 31/01 A3002 RMK A01 T03070010  RH  015%=      5-min Rain = 0
KTAT 141750Z 17007KT 31/M01 A3002 RMK A01 T03071007  RH  013%=      5-min Rain = 0
KTAT 141755Z 15003KT 31/M00 A3002 RMK A01 T03081001  RH  014%=      5-min Rain = 0
KTAT 141800Z 23008G18KT 32/M00 A3002 RMK A01 T03181001  RH  013%=      5-min Rain = 0
KTAT 141805Z 25008G13KT 32/M01 A3002 RMK A01 T03211006  RH  012%=      5-min Rain = 0
KTAT 141810Z 25007KT 32/M01 A3001 RMK A01 T03161006  RH  013%=      5-min Rain = 0
KTAT 141815Z 27004G9KT 31/M01 A3001 RMK A01 T03141006  RH  013%=      5-min Rain = 0
KTAT 141820Z 27008KT 31/M01 A3001 RMK A01 T03091012  RH  013%=      5-min Rain = 0
KTAT 141825Z 24008KT 30/M01 A3001 RMK A01 T03031012  RH  013%=      5-min Rain = 0
KTAT 141830Z 21009G21KT 31/01 A3001 RMK A01 T03080006  RH  015%=      5-min Rain = 0
KTAT 141835Z 18006G11KT 31/03 A3001 RMK A01 T03120029  RH  017%=      5-min Rain = 0
KTAT 141840Z 16008G14KT 32/03 A30 RMK A01 T03150034  RH  017%=      5-min Rain = 0
KTAT 141845Z 18008G17KT 33/03 A30 RMK A01 T03270033  RH  016%=      5-min Rain = 0
KTAT 141850Z 22010G16KT 32/00 A30 RMK A01 T03240004  RH  013%=      5-min Rain = 0
KTAT 141855Z 21009KT 32/M01 A30 RMK A01 T03201005  RH  013%=      5-min Rain = 0
KTAT 141900Z 20016G25KT 32/03 A30 RMK A01 T03200032  RH  017%=      5-min Rain = 0
KTAT 141905Z 19019G25KT 32/05 A30 RMK A01 T03150048  RH  019%=      5-min Rain = 0
KTAT 141910Z 17013KT 32/04 A30 RMK A01 T03160035  RH  017%=      5-min Rain = 0
KTAT 141915Z 17009G15KT 32/04 A30 RMK A01 T03150036  RH  017%=      5-min Rain = 0
KTAT 141920Z 15010G23KT 33/04 A2999 RMK A01 T03290039  RH  017%=      5-min Rain = 0
KTAT 141925Z 22017G27KT 33/02 A2999 RMK A01 T03320022  RH  014%=      5-min Rain = 0
KTAT 141930Z 18014G22KT 33/02 A2999 RMK A01 T03260023  RH  015%=      5-min Rain = 0
KTAT 141935Z 22011G18KT 32/02 A2999 RMK A01 T03220021  RH  015%=      5-min Rain = 0
KTAT 141940Z 24012G17KT 32/00 A2999 RMK A01 T03210004  RH  013%=      5-min Rain = 0
KTAT 141945Z 26008G15KT 32/M00 A2998 RMK A01 T03201001  RH  013%=      5-min Rain = 0
KTAT 141950Z 24010G15KT 33/00 A2998 RMK A01 T03250001  RH  013%=      5-min Rain = 0
KTAT 141955Z 22009G15KT 33/00 A2998 RMK A01 T03280000  RH  012%=      5-min Rain = 0
KTAT 142000Z 21011G19KT 34/01 A2998 RMK A01 T03420006  RH  012%=      5-min Rain = 0
KTAT 142005Z 22013G20KT 34/M00 A2998 RMK A01 T03391001  RH  012%=      5-min Rain = 0
KTAT 142010Z 20013G23KT 33/M00 A2997 RMK A01 T03301003  RH  012%=      5-min Rain = 0
KTAT 142015Z 20014G19KT 33/M00 A2997 RMK A01 T03281002  RH  012%=      5-min Rain = 0
KTAT 142020Z 20014G21KT 33/M00 A2997 RMK A01 T03301002  RH  012%=      5-min Rain = 0
KTAT 142025Z 20013G19KT 33/M00 A2997 RMK A01 T03311004  RH  012%=      5-min Rain = 0
KTAT 142030Z 20014G21KT 33/M00 A2996 RMK A01 T03311002  RH  012%=      5-min Rain = 0
KTAT 142035Z 18014G19KT 34/00 A2996 RMK A01 T03410001  RH  012%=      5-min Rain = 0
KTAT 142040Z 19012KT 34/M00 A2996 RMK A01 T03371001  RH  012%=      5-min Rain = 0
KTAT 142045Z 20008G13KT 34/00 A2996 RMK A01 T03410001  RH  012%=      5-min Rain = 0
KTAT 142050Z 22017G25KT 34/M01 A2996 RMK A01 T03391005  RH  011%=      5-min Rain = 0
KTAT 142055Z 24012G19KT 33/M01 A2996 RMK A01 T03341005  RH  012%=      5-min Rain = 0
KTAT 142100Z 22010G16KT 34/M00 A2995 RMK A01 T03351004  RH  012%=      5-min Rain = 0
KTAT 142105Z 22014G22KT 34/M01 A2995 RMK A01 T03381005  RH  011%=      5-min Rain = 0
KTAT 142110Z 23015G20KT 33/M01 A2995 RMK A01 T03331011  RH  011%=      5-min Rain = 0
KTAT 142115Z 24011G18KT 33/M01 A2995 RMK A01 T03301009  RH  011%=      5-min Rain = 0
KTAT 142120Z 22016KT 34/M01 A2994 RMK A01 T03351007  RH  011%=      5-min Rain = 0
KTAT 142125Z 20013KT 34/M00 A2994 RMK A01 T03371004  RH  011%=      5-min Rain = 0
KTAT 142130Z 20012G25KT 34/M00 A2993 RMK A01 T03421004  RH  011%=      5-min Rain = 0
KTAT 142135Z 23014G20KT 34/M01 A2993 RMK A01 T03381009  RH  011%=      5-min Rain = 0
KTAT 142140Z 22009G18KT 33/M01 A2993 RMK A01 T03261010  RH  012%=      5-min Rain = 0
KTAT 142145Z 20015G23KT 33/M01 A2993 RMK A01 T03301005  RH  012%=      5-min Rain = 0
KTAT 142150Z 20016G22KT 34/M00 A2993 RMK A01 T03351003  RH  012%=      5-min Rain = 0
KTAT 142155Z 20010G17KT 33/M01 A2992 RMK A01 T03291005  RH  012%=      5-min Rain = 0
KTAT 142200Z 17009KT 33/M00 A2992 RMK A01 T03321002  RH  012%=      5-min Rain = 0
KTAT 142205Z 16009G14KT 34/00 A2992 RMK A01 T03390001  RH  012%=      5-min Rain = 0
KTAT 142210Z 21012G18KT 34/M00 A2992 RMK A01 T03421002  RH  011%=      5-min Rain = 0
KTAT 142215Z 19016KT 33/M01 A2992 RMK A01 T03331005  RH  012%=      5-min Rain = 0
KTAT 142220Z 18009KT 32/M01 A2991 RMK A01 T03161007  RH  013%=      5-min Rain = 0
KTAT 142225Z 17011G18KT 33/00 A2991 RMK A01 T033100-0  RH  012%=      5-min Rain = 0
KTAT 142230Z 18014G19KT 33/M01 A2991 RMK A01 T03251006  RH  012%=      5-min Rain = 0
KTAT 142235Z 17011G16KT 34/M00 A2991 RMK A01 T03361001  RH  012%=      5-min Rain = 0
KTAT 142240Z 18013G18KT 34/M00 A2991 RMK A01 T03411002  RH  011%=      5-min Rain = 0
KTAT 142245Z 19012G18KT 34/M01 A2991 RMK A01 T03361007  RH  011%=      5-min Rain = 0
KTAT 142250Z 23013KT 33/M01 A2991 RMK A01 T03341013  RH  011%=      5-min Rain = 0
KTAT 142255Z 23012KT 33/M01 A299 RMK A01 T03341012  RH  011%=      5-min Rain = 0
KTAT 142300Z 21014G19KT 33/M01 A299 RMK A01 T03321011  RH  011%=      5-min Rain = 0
KTAT 142305Z 19014G19KT 33/M01 A299 RMK A01 T03311010  RH  011%=      5-min Rain = 0
KTAT 142310Z 19015G22KT 33/M01 A299 RMK A01 T03321010  RH  011%=      5-min Rain = 0
KTAT 142315Z 20015G20KT 33/M01 A299 RMK A01 T03311011  RH  011%=      5-min Rain = 0
KTAT 142320Z 20013G18KT 33/M01 A299 RMK A01 T03301010  RH  011%=      5-min Rain = 0
KTAT 142325Z 19013G21KT 33/M01 A299 RMK A01 T03321011  RH  011%=      5-min Rain = 0
KTAT 142330Z 21019G25KT 33/M01 A299 RMK A01 T03291013  RH  011%=      5-min Rain = 0
KTAT 142335Z 22015G23KT 33/M01 A299 RMK A01 T03261014  RH  011%=      5-min Rain = 0
KTAT 142340Z 21013G19KT 32/M01 A299 RMK A01 T03241014  RH  011%=      5-min Rain = 0
KTAT 142345Z 20013G18KT 32/M02 A299 RMK A01 T03231015  RH  011%=      5-min Rain = 0
KTAT 142350Z 21016G21KT 32/M02 A2989 RMK A01 T03221016  RH  011%=      5-min Rain = 0
KTAT 142355Z 21013KT 32/M02 A2989 RMK A01 T03221017  RH  011%=      5-min Rain = 0
KTAT 150000Z 21011G16KT 32/M02 A2989 RMK A01 T03231017  RH  011%=      5-min Rain = 0
KTAT 150005Z 24012KT 32/M02 A2989 RMK A01 T03221018  RH  011%=      5-min Rain = 0
KTAT 150010Z 22011G17KT 32/M02 A2989 RMK A01 T03191019  RH  011%=      5-min Rain = 0
KTAT 150015Z 21014G19KT 32/M02 A2989 RMK A01 T03181017  RH  012%=      5-min Rain = 0
KTAT 150020Z 21013KT 32/M02 A2989 RMK A01 T03161017  RH  012%=      5-min Rain = 0
KTAT 150025Z 21011KT 32/M02 A2989 RMK A01 T03161017  RH  012%=      5-min Rain = 0
KTAT 150030Z 22012G17KT 32/M02 A2989 RMK A01 T03171016  RH  012%=      5-min Rain = 0
KTAT 150035Z 20012KT 32/M02 A2989 RMK A01 T03151017  RH  012%=      5-min Rain = 0
KTAT 150040Z 22014G19KT 31/M02 A2989 RMK A01 T03131016  RH  012%=      5-min Rain = 0
KTAT 150045Z 22013KT 31/M02 A2989 RMK A01 T03101016  RH  012%=      5-min Rain = 0
KTAT 150050Z 21013KT 31/M02 A2989 RMK A01 T03091017  RH  012%=      5-min Rain = 0
KTAT 150055Z 22014KT 31/M02 A2989 RMK A01 T03081019  RH  012%=      5-min Rain = 0
KTAT 150100Z 21013KT 31/M02 A2989 RMK A01 T03061018  RH  012%=      5-min Rain = 0
KTAT 150105Z 21011G16KT 30/M02 A2989 RMK A01 T03041018  RH  012%=      5-min Rain = 0
KTAT 150110Z 21012KT 30/M02 A2989 RMK A01 T03021018  RH  013%=      5-min Rain = 0
KTAT 150115Z 20010KT 30/M02 A2989 RMK A01 T03001018  RH  013%=      5-min Rain = 0
KTAT 150120Z 20010KT 30/M02 A2989 RMK A01 T02961019  RH  013%=      5-min Rain = 0
KTAT 150125Z 19011KT 29/M02 A2989 RMK A01 T02921019  RH  013%=      5-min Rain = 0
KTAT 150130Z 20010KT 29/M02 A299 RMK A01 T02891020  RH  013%=      5-min Rain = 0
KTAT 150135Z 20009KT 28/M02 A299 RMK A01 T02841020  RH  014%=      5-min Rain = 0
KTAT 150140Z 19008KT 28/M02 A299 RMK A01 T02761021  RH  014%=      5-min Rain = 0
KTAT 150145Z 19008KT 27/M02 A299 RMK A01 T02661022  RH  015%=      5-min Rain = 0
KTAT 150150Z 19007KT 26/M02 A299 RMK A01 T02581023  RH  016%=      5-min Rain = 0
KTAT 150155Z 20008KT 25/M03 A299 RMK A01 T02491025  RH  016%=      5-min Rain = 0
KTAT 150200Z 19008KT 24/M02 A2991 RMK A01 T02411022  RH  017%=      5-min Rain = 0
KTAT 150205Z 19009KT 23/M02 A2991 RMK A01 T02321017  RH  019%=      5-min Rain = 0
KTAT 150210Z 19008KT 23/M02 A2991 RMK A01 T02261016  RH  020%=      5-min Rain = 0
KTAT 150215Z 19008KT 22/M02 A2991 RMK A01 T02221015  RH  021%=      5-min Rain = 0
KTAT 150220Z 18008KT 22/M01 A2991 RMK A01 T02181014  RH  021%=      5-min Rain = 0
KTAT 150225Z 19007KT 21/M01 A2991 RMK A01 T02141012  RH  022%=      5-min Rain = 0
KTAT 150230Z 19009KT 21/M01 A2992 RMK A01 T02121010  RH  023%=      5-min Rain = 0
KTAT 150235Z 19008KT 21/M01 A2992 RMK A01 T02111009  RH  023%=      5-min Rain = 0
KTAT 150240Z 19008KT 21/M01 A2992 RMK A01 T02081009  RH  024%=      5-min Rain = 0
KTAT 150245Z 19008KT 21/M01 A2992 RMK A01 T02071009  RH  024%=      5-min Rain = 0
KTAT 150250Z 19008KT 20/M01 A2992 RMK A01 T02031011  RH  024%=      5-min Rain = 0
KTAT 150255Z 20009KT 20/M01 A2993 RMK A01 T01991012  RH  024%=      5-min Rain = 0
KTAT 150300Z 19009KT 20/M01 A2993 RMK A01 T01991011  RH  024%=      5-min Rain = 0
KTAT 150305Z 17006KT 19/M01 A2993 RMK A01 T01941011  RH  025%=      5-min Rain = 0
KTAT 150310Z 17008KT 19/M01 A2994 RMK A01 T01861007  RH  027%=      5-min Rain = 0
KTAT 150315Z 18009KT 19/M01 A2994 RMK A01 T01911005  RH  027%=      5-min Rain = 0
KTAT 150320Z 18009KT 20/M01 A2994 RMK A01 T01951007  RH  026%=      5-min Rain = 0
KTAT 150325Z 18009KT 19/M01 A2995 RMK A01 T01941005  RH  026%=      5-min Rain = 0
KTAT 150330Z 19009KT 19/M00 A2995 RMK A01 T01941004  RH  027%=      5-min Rain = 0
KTAT 150335Z 19009KT 20/M00 A2995 RMK A01 T01971003  RH  026%=      5-min Rain = 0
KTAT 150340Z 19009KT 20/M00 A2995 RMK A01 T01991002  RH  026%=      5-min Rain = 0
KTAT 150345Z 18009KT 20/00 A2995 RMK A01 T019900-0  RH  027%=      5-min Rain = 0
KTAT 150350Z 18008KT 20/00 A2995 RMK A01 T02000003  RH  027%=      5-min Rain = 0
KTAT 150355Z 18008KT 20/01 A2996 RMK A01 T02010005  RH  027%=      5-min Rain = 0
KTAT 150400Z 18010KT 20/01 A2996 RMK A01 T02040012  RH  028%=      5-min Rain = 0
KTAT 150405Z 18011KT 21/02 A2996 RMK A01 T02140019  RH  028%=      5-min Rain = 0
KTAT 150410Z 18011KT 22/02 A2996 RMK A01 T02180021  RH  028%=      5-min Rain = 0
KTAT 150415Z 19010KT 22/03 A2996 RMK A01 T02200026  RH  028%=      5-min Rain = 0
KTAT 150420Z 18010KT 22/03 A2996 RMK A01 T02210030  RH  029%=      5-min Rain = 0
KTAT 150425Z 19010KT 22/03 A2997 RMK A01 T02220032  RH  029%=      5-min Rain = 0
KTAT 150430Z 19010KT 22/03 A2997 RMK A01 T02200034  RH  030%=      5-min Rain = 0
KTAT 150435Z 19010KT 22/04 A2997 RMK A01 T02160035  RH  031%=      5-min Rain = 0
KTAT 150440Z 19010KT 21/04 A2997 RMK A01 T02140037  RH  032%=      5-min Rain = 0
KTAT 150445Z 19009KT 21/04 A2997 RMK A01 T02130037  RH  032%=      5-min Rain = 0
KTAT 150450Z 20009KT 21/04 A2997 RMK A01 T02100035  RH  032%=      5-min Rain = 0
KTAT 150455Z 21008KT 20/03 A2997 RMK A01 T02030032  RH  033%=      5-min Rain = 0

Page generated in 0.0322 seconds.